Time;durP1;ratioP1;P1;durP2;ratioP2;P2;SDS_P1;SDS_P2;PMS_P1;PMS_P2;Temp;Humidity;BMP_temperature;BMP_pressure;BME280_temperature;BME280_humidity;BME280_pressure;Samples;Min_cycle;Max_cycle;Signal;HPM_P1;HPM_P2
2023/04/26 00:00:32;;;;;;;15.50;5.70;;;3.90;99.90;;;;;;4933298;29;20259;-76
2023/04/26 00:02:59;;;;;;;12.97;6.00;;;3.90;99.90;;;;;;4915252;29;20325;-76
2023/04/26 00:05:27;;;;;;;11.70;6.47;;;3.90;99.90;;;;;;4933069;29;20218;-76
2023/04/26 00:07:55;;;;;;;12.60;6.10;;;3.80;99.90;;;;;;4916144;29;20213;-78
2023/04/26 00:10:22;;;;;;;18.53;6.87;;;3.80;99.90;;;;;;4916585;29;20222;-77
2023/04/26 00:12:48;;;;;;;11.97;6.30;;;3.80;99.90;;;;;;4936404;29;20283;-76
2023/04/26 00:15:15;;;;;;;12.90;6.07;;;3.70;99.90;;;;;;4935300;29;20227;-76
2023/04/26 00:17:42;;;;;;;15.50;6.20;;;3.70;99.90;;;;;;4915664;29;20277;-76
2023/04/26 00:20:11;;;;;;;11.47;5.80;;;3.70;99.90;;;;;;4932563;29;20220;-76
2023/04/26 00:22:39;;;;;;;13.30;5.73;;;3.70;99.90;;;;;;4932325;29;20682;-76
2023/04/26 00:25:06;;;;;;;10.43;6.20;;;3.60;99.90;;;;;;4918192;29;20252;-76
2023/04/26 00:27:33;;;;;;;14.57;6.23;;;3.60;99.90;;;;;;4912280;29;20214;-77
2023/04/26 00:30:00;;;;;;;18.07;6.77;;;3.60;99.90;;;;;;4931989;29;20292;-77
2023/04/26 00:32:27;;;;;;;12.17;6.03;;;3.60;99.90;;;;;;4925202;29;20305;-76
2023/04/26 00:34:54;;;;;;;16.77;6.13;;;3.60;99.90;;;;;;4932441;29;20613;-76
2023/04/26 00:37:22;;;;;;;19.60;7.33;;;3.60;99.90;;;;;;4932385;29;20289;-77
2023/04/26 00:39:48;;;;;;;13.80;5.70;;;3.60;99.90;;;;;;4932758;29;20686;-77
2023/04/26 00:42:15;;;;;;;16.43;6.97;;;3.60;99.90;;;;;;4931287;29;20314;-76
2023/04/26 00:44:42;;;;;;;16.43;7.07;;;3.60;99.90;;;;;;4932291;29;20214;-76
2023/04/26 00:47:09;;;;;;;19.07;10.53;;;3.60;99.90;;;;;;4932374;29;20258;-75
2023/04/26 00:49:36;;;;;;;17.57;10.07;;;3.60;99.90;;;;;;4932167;29;20202;-76
2023/04/26 00:52:03;;;;;;;18.23;10.53;;;3.60;99.90;;;;;;4934383;29;20253;-76
2023/04/26 00:54:30;;;;;;;15.87;9.47;;;3.60;99.90;;;;;;4934382;29;20298;-75
2023/04/26 00:56:56;;;;;;;17.57;8.87;;;3.60;99.90;;;;;;4936244;29;20237;-76
2023/04/26 00:59:25;;;;;;;15.27;7.60;;;3.60;99.90;;;;;;4937077;29;20273;-75
2023/04/26 01:01:52;;;;;;;12.63;6.13;;;3.60;99.90;;;;;;4936323;29;20237;-76
2023/04/26 01:04:19;;;;;;;17.37;6.77;;;3.60;99.90;;;;;;4934044;29;20200;-77
2023/04/26 01:06:46;;;;;;;14.77;6.17;;;3.60;99.90;;;;;;4936242;29;20210;-76
2023/04/26 01:09:14;;;;;;;16.03;5.60;;;3.50;99.90;;;;;;4933067;29;20776;-77
2023/04/26 01:11:42;;;;;;;12.07;5.83;;;3.60;99.90;;;;;;4934250;29;20210;-77
2023/04/26 01:14:10;;;;;;;13.43;5.17;;;3.50;99.90;;;;;;4932767;29;20222;-76
2023/04/26 01:16:38;;;;;;;15.53;5.37;;;3.50;99.90;;;;;;4931636;29;20208;-77
2023/04/26 01:19:11;;;;;;;15.57;5.57;;;3.50;99.90;;;;;;4931995;29;20289;-76
2023/04/26 01:21:39;;;;;;;13.27;5.97;;;3.50;99.90;;;;;;4930663;29;20247;-76
2023/04/26 01:24:10;;;;;;;13.80;5.17;;;3.50;99.90;;;;;;4931447;29;20217;-77
2023/04/26 01:26:44;;;;;;;9.90;5.17;;;3.50;99.90;;;;;;4932544;29;20199;-76
2023/04/26 01:29:16;;;;;;;12.93;5.43;;;3.40;99.90;;;;;;4932082;29;20237;-77
2023/04/26 01:31:43;;;;;;;16.00;5.50;;;3.40;99.90;;;;;;4928435;29;20241;-79
2023/04/26 01:34:09;;;;;;;12.27;5.77;;;3.40;99.90;;;;;;4914924;29;20222;-77
2023/04/26 01:36:36;;;;;;;12.17;5.70;;;3.40;99.90;;;;;;4931763;29;20205;-78
2023/04/26 01:39:04;;;;;;;14.37;5.80;;;3.30;99.90;;;;;;4914841;29;20304;-75
2023/04/26 01:41:32;;;;;;;11.23;5.60;;;3.30;99.90;;;;;;4915049;29;20325;-77
2023/04/26 01:44:00;;;;;;;11.67;6.30;;;3.20;99.90;;;;;;4931643;29;20236;-77
2023/04/26 01:46:27;;;;;;;10.57;5.97;;;3.20;99.90;;;;;;4931563;29;20296;-76
2023/04/26 01:48:54;;;;;;;13.07;5.67;;;3.10;99.90;;;;;;4913718;29;20695;-77
2023/04/26 01:51:21;;;;;;;12.57;5.87;;;3.10;99.90;;;;;;4931199;29;20646;-77
2023/04/26 01:53:48;;;;;;;14.30;6.40;;;3.10;99.90;;;;;;4914307;29;20217;-76
2023/04/26 01:56:15;;;;;;;9.57;5.57;;;3.10;99.90;;;;;;4931239;29;20252;-75
2023/04/26 01:58:42;;;;;;;10.03;5.80;;;3.00;99.90;;;;;;4927699;29;20696;-78
2023/04/26 02:01:10;;;;;;;15.40;6.23;;;3.00;99.90;;;;;;4932065;29;20309;-77
2023/04/26 02:03:36;;;;;;;16.93;6.70;;;3.00;99.90;;;;;;4931919;29;20226;-77
2023/04/26 02:06:04;;;;;;;17.57;7.23;;;3.00;99.90;;;;;;4934782;29;20209;-77
2023/04/26 02:08:30;;;;;;;14.37;6.17;;;3.10;99.90;;;;;;4934420;29;20221;-76
2023/04/26 02:10:57;;;;;;;14.80;6.57;;;2.90;99.90;;;;;;4934961;29;20631;-77
2023/04/26 02:13:24;;;;;;;12.87;5.50;;;2.80;99.90;;;;;;4920698;29;20237;-76
2023/04/26 02:15:51;;;;;;;17.90;6.43;;;2.80;99.90;;;;;;4934762;29;20230;-75
2023/04/26 02:18:20;;;;;;;8.40;5.50;;;2.90;99.90;;;;;;4934765;29;20207;-77
2023/04/26 02:20:48;;;;;;;14.33;5.87;;;2.70;99.90;;;;;;4934098;29;20705;-76
2023/04/26 02:23:15;;;;;;;12.73;5.77;;;2.80;99.90;;;;;;4934897;29;20264;-75
2023/04/26 02:25:46;;;;;;;10.53;5.77;;;2.70;99.90;;;;;;4938243;29;20208;-76
2023/04/26 02:28:13;;;;;;;14.33;5.17;;;2.70;99.90;;;;;;4913137;29;20621;-76
2023/04/26 02:30:39;;;;;;;12.93;6.60;;;2.70;99.90;;;;;;4934857;29;20229;-76
2023/04/26 02:33:07;;;;;;;13.60;5.93;;;2.70;99.90;;;;;;4916686;29;20300;-77
2023/04/26 02:35:36;;;;;;;13.77;6.27;;;2.60;99.90;;;;;;4934086;29;20209;-76
2023/04/26 02:38:06;;;;;;;19.27;6.63;;;2.60;99.90;;;;;;4934224;29;20847;-77
2023/04/26 02:40:32;;;;;;;12.03;6.40;;;2.60;99.90;;;;;;4934732;29;20209;-77
2023/04/26 02:42:59;;;;;;;11.50;6.53;;;2.50;99.90;;;;;;4934447;29;20283;-77
2023/04/26 02:45:26;;;;;;;12.87;6.47;;;2.40;99.90;;;;;;4914726;29;20210;-76
2023/04/26 02:47:53;;;;;;;15.87;6.80;;;2.30;99.90;;;;;;4916837;29;20217;-76
2023/04/26 02:50:20;;;;;;;15.70;5.90;;;2.20;99.90;;;;;;4934773;29;20292;-77
2023/04/26 02:52:49;;;;;;;11.43;5.87;;;2.10;99.90;;;;;;4934228;29;20273;-77
2023/04/26 02:55:16;;;;;;;11.43;6.23;;;2.20;99.90;;;;;;4934749;29;20220;-76
2023/04/26 02:57:43;;;;;;;11.10;6.17;;;2.20;99.90;;;;;;4934428;29;20241;-77
2023/04/26 03:00:12;;;;;;;13.00;6.63;;;2.10;99.90;;;;;;4934158;29;20586;-77
2023/04/26 03:02:40;;;;;;;13.37;6.90;;;2.10;99.90;;;;;;4934018;29;20324;-76
2023/04/26 03:05:08;;;;;;;12.63;7.17;;;2.10;99.90;;;;;;4934271;29;20202;-76
2023/04/26 03:07:36;;;;;;;18.83;7.03;;;2.10;99.90;;;;;;4916960;29;20226;-76
2023/04/26 03:10:04;;;;;;;12.57;6.83;;;2.10;99.90;;;;;;4934055;29;20215;-76
2023/04/26 03:12:30;;;;;;;16.93;6.97;;;2.10;99.90;;;;;;4934076;29;20763;-76
2023/04/26 03:14:57;;;;;;;22.47;7.80;;;2.10;99.90;;;;;;4933696;29;20235;-78
2023/04/26 03:17:24;;;;;;;14.53;6.30;;;2.10;99.90;;;;;;4933767;29;20929;-77
2023/04/26 03:19:51;;;;;;;14.93;6.40;;;2.10;99.90;;;;;;4933419;29;20201;-76
2023/04/26 03:22:18;;;;;;;12.33;6.47;;;2.10;99.90;;;;;;4934152;29;20681;-76
2023/04/26 03:24:45;;;;;;;12.60;6.13;;;2.10;99.90;;;;;;4933410;29;20295;-78
2023/04/26 03:27:13;;;;;;;14.43;7.00;;;2.10;99.90;;;;;;4933290;29;20653;-77
2023/04/26 03:29:40;;;;;;;12.53;6.53;;;2.10;99.90;;;;;;4916430;29;20221;-76
2023/04/26 03:32:09;;;;;;;18.57;7.47;;;2.10;99.90;;;;;;4933591;29;20209;-77
2023/04/26 03:34:36;;;;;;;17.17;6.47;;;2.10;99.90;;;;;;4933149;29;20208;-77
2023/04/26 03:37:03;;;;;;;15.00;7.17;;;2.10;99.90;;;;;;4933700;29;20209;-77
2023/04/26 03:39:30;;;;;;;14.53;6.37;;;2.10;99.90;;;;;;4934339;29;20209;-77
2023/04/26 03:41:57;;;;;;;16.57;6.27;;;2.10;99.90;;;;;;4933169;29;20252;-76
2023/04/26 03:44:24;;;;;;;11.33;5.67;;;2.10;99.90;;;;;;4933821;29;20286;-76
2023/04/26 03:46:50;;;;;;;12.40;6.03;;;2.10;99.90;;;;;;4932654;29;22025;-77
2023/04/26 03:49:17;;;;;;;14.80;6.40;;;2.10;99.90;;;;;;4933479;29;20300;-77
2023/04/26 03:51:44;;;;;;;13.13;6.13;;;2.10;99.90;;;;;;4916270;29;20300;-77
2023/04/26 03:54:11;;;;;;;14.33;5.87;;;2.00;99.90;;;;;;4933217;29;20216;-77
2023/04/26 03:56:38;;;;;;;16.30;5.63;;;2.00;99.90;;;;;;4933446;29;20206;-76
2023/04/26 03:59:05;;;;;;;12.70;5.90;;;2.00;99.90;;;;;;4920481;29;20358;-77
2023/04/26 04:01:32;;;;;;;15.07;7.03;;;2.00;99.90;;;;;;4933258;29;20303;-76
2023/04/26 04:03:59;;;;;;;15.13;6.90;;;2.10;99.90;;;;;;4928650;29;20236;-78
2023/04/26 04:06:26;;;;;;;20.83;7.53;;;2.10;99.90;;;;;;4915889;29;20200;-78
2023/04/26 04:08:53;;;;;;;14.63;7.07;;;2.10;99.90;;;;;;4932980;29;20208;-78
2023/04/26 04:11:21;;;;;;;15.73;6.60;;;2.20;99.90;;;;;;4933560;29;20205;-77
2023/04/26 04:13:48;;;;;;;17.27;7.03;;;2.20;99.90;;;;;;4935028;29;20262;-77
2023/04/26 04:16:16;;;;;;;12.33;6.07;;;2.20;99.90;;;;;;4932513;29;20256;-78
2023/04/26 04:18:43;;;;;;;18.33;7.60;;;2.30;99.90;;;;;;4931548;29;20231;-77
2023/04/26 04:21:10;;;;;;;14.97;7.90;;;2.30;99.90;;;;;;4932548;29;20302;-77
2023/04/26 04:23:37;;;;;;;16.47;6.13;;;2.30;99.90;;;;;;4934332;29;20233;-77
2023/04/26 04:26:05;;;;;;;12.90;6.57;;;2.30;99.90;;;;;;4935625;29;20635;-77
2023/04/26 04:28:33;;;;;;;18.20;7.00;;;2.30;99.90;;;;;;4934170;29;20277;-77
2023/04/26 04:31:00;;;;;;;20.33;7.10;;;2.40;99.90;;;;;;4933020;29;20253;-77
2023/04/26 04:33:27;;;;;;;19.03;7.43;;;2.40;99.90;;;;;;4930947;29;20223;-76
2023/04/26 04:35:54;;;;;;;18.23;8.10;;;2.40;99.90;;;;;;4930590;29;20689;-78
2023/04/26 04:38:22;;;;;;;16.60;7.70;;;2.40;99.90;;;;;;4929277;29;20284;-76
2023/04/26 04:40:49;;;;;;;18.53;8.30;;;2.50;99.90;;;;;;4932386;29;20212;-78
2023/04/26 04:43:16;;;;;;;18.23;7.60;;;2.50;99.90;;;;;;4936039;29;20236;-77
2023/04/26 04:45:43;;;;;;;21.63;8.07;;;2.60;99.90;;;;;;4931984;29;20299;-77
2023/04/26 04:48:10;;;;;;;24.10;8.60;;;2.60;99.90;;;;;;4930571;29;20201;-76
2023/04/26 04:50:38;;;;;;;18.63;7.80;;;2.60;99.90;;;;;;4931778;29;20288;-75
2023/04/26 04:53:05;;;;;;;22.23;8.53;;;2.70;99.90;;;;;;4932372;29;20307;-77
2023/04/26 04:55:32;;;;;;;19.60;8.37;;;2.70;99.90;;;;;;4930927;29;20705;-77
2023/04/26 04:58:00;;;;;;;24.27;8.50;;;2.80;99.90;;;;;;4930876;29;20345;-76
2023/04/26 05:00:29;;;;;;;21.00;8.63;;;2.80;99.90;;;;;;4931714;29;20709;-77
2023/04/26 05:02:57;;;;;;;23.00;9.17;;;2.90;99.90;;;;;;4928331;29;20206;-77
2023/04/26 05:05:24;;;;;;;20.20;8.50;;;2.90;99.90;;;;;;4930861;29;20193;-76
2023/04/26 05:07:50;;;;;;;21.33;8.50;;;3.10;99.90;;;;;;4912348;28;20611;-77
2023/04/26 05:10:17;;;;;;;20.97;9.80;;;3.10;99.90;;;;;;4932832;29;20284;-77
2023/04/26 05:12:45;;;;;;;25.93;9.97;;;3.20;99.90;;;;;;4931544;29;20217;-76
2023/04/26 05:15:12;;;;;;;26.47;10.03;;;3.30;99.90;;;;;;4937124;29;20817;-76
2023/04/26 05:17:40;;;;;;;21.23;9.47;;;3.40;99.90;;;;;;4931968;29;20273;-77
2023/04/26 05:20:08;;;;;;;19.87;8.13;;;3.50;99.90;;;;;;4931059;29;20678;-76
2023/04/26 05:22:35;;;;;;;28.40;10.33;;;3.60;99.90;;;;;;4930994;29;20716;-77
2023/04/26 05:25:03;;;;;;;24.10;9.60;;;3.70;99.90;;;;;;4912815;29;20227;-77
2023/04/26 05:27:30;;;;;;;20.67;8.43;;;3.70;99.90;;;;;;4931150;29;20236;-78
2023/04/26 05:29:59;;;;;;;19.23;9.93;;;3.80;99.90;;;;;;4916635;29;20262;-77
2023/04/26 05:32:26;;;;;;;21.67;9.10;;;3.90;99.90;;;;;;4931759;29;20206;-76
2023/04/26 05:34:52;;;;;;;15.57;7.50;;;3.90;99.90;;;;;;4931925;29;20242;-77
2023/04/26 05:37:19;;;;;;;19.53;8.03;;;3.90;99.90;;;;;;4931517;29;20697;-76
2023/04/26 05:39:48;;;;;;;20.07;8.13;;;4.00;99.90;;;;;;4934875;29;20339;-77
2023/04/26 05:42:15;;;;;;;18.47;8.50;;;4.00;99.90;;;;;;4932371;29;20294;-78
2023/04/26 05:44:44;;;;;;;17.47;7.83;;;4.00;99.90;;;;;;4934980;29;20592;-76
2023/04/26 05:47:11;;;;;;;16.67;8.07;;;4.10;99.90;;;;;;4937995;29;20210;-77
2023/04/26 05:49:37;;;;;;;21.13;8.43;;;4.20;99.90;;;;;;4936929;29;20201;-77
2023/04/26 05:52:04;;;;;;;25.77;9.10;;;4.30;99.90;;;;;;4920118;29;20259;-77
2023/04/26 05:54:31;;;;;;;19.50;8.37;;;4.40;99.90;;;;;;4935086;29;20205;-77
2023/04/26 05:56:58;;;;;;;15.13;7.80;;;4.50;99.90;;;;;;4934612;29;20688;-78
2023/04/26 05:59:25;;;;;;;16.43;8.23;;;4.60;99.90;;;;;;4935659;29;20277;-77
2023/04/26 06:01:51;;;;;;;20.37;8.37;;;5.10;99.90;;;;;;4935238;29;20251;-77
2023/04/26 06:04:18;;;;;;;15.87;7.83;;;4.80;99.90;;;;;;4935155;29;20231;-77
2023/04/26 06:06:47;;;;;;;18.60;8.30;;;4.90;99.90;;;;;;4935469;29;20213;-77
2023/04/26 06:09:14;;;;;;;18.43;7.87;;;5.00;99.90;;;;;;4935404;29;20240;-76
2023/04/26 06:11:42;;;;;;;17.47;7.60;;;5.40;99.90;;;;;;4924052;29;20740;-76
2023/04/26 06:14:09;;;;;;;18.73;7.70;;;6.00;99.90;;;;;;4920239;29;20368;-76
2023/04/26 06:16:55;;;;;;;18.57;7.33;;;6.60;99.90;;;;;;4933429;29;20207;-76
2023/04/26 06:19:22;;;;;;;11.80;6.17;;;7.30;99.90;;;;;;4934444;29;20685;-77
2023/04/26 06:21:50;;;;;;;15.03;7.07;;;7.60;99.90;;;;;;4934090;29;20648;-76
2023/04/26 06:24:24;;;;;;;14.07;5.27;;;8.80;99.90;;;;;;4935826;29;20232;-76
2023/04/26 06:26:54;;;;;;;8.87;4.27;;;9.10;99.90;;;;;;4934973;29;20216;-78
2023/04/26 06:29:21;;;;;;;10.53;4.67;;;9.10;99.90;;;;;;4934638;29;20231;-78
2023/04/26 06:31:48;;;;;;;10.50;4.70;;;9.00;99.90;;;;;;4933688;29;20299;-78
2023/04/26 06:34:15;;;;;;;5.82;3.83;;;8.90;99.90;;;;;;4931763;29;20406;-78
2023/04/26 06:36:41;;;;;;;9.00;4.47;;;8.70;99.90;;;;;;4917663;29;20213;-78
2023/04/26 06:39:08;;;;;;;7.97;4.67;;;8.60;99.90;;;;;;4932017;29;20565;-78
2023/04/26 06:41:35;;;;;;;9.00;4.50;;;8.60;99.90;;;;;;4934754;29;20260;-77
2023/04/26 06:44:01;;;;;;;12.63;4.27;;;8.60;99.90;;;;;;4933164;29;20328;-75
2023/04/26 06:46:28;;;;;;;9.40;4.40;;;8.60;99.90;;;;;;4934407;29;20304;-77
2023/04/26 06:48:55;;;;;;;9.50;4.17;;;8.60;99.90;;;;;;4934116;29;20202;-77
2023/04/26 06:51:22;;;;;;;7.57;4.00;;;8.60;99.90;;;;;;4918155;29;20221;-77
2023/04/26 06:53:49;;;;;;;7.70;3.83;;;8.70;99.90;;;;;;4926819;29;20253;-79
2023/04/26 06:56:17;;;;;;;9.97;3.87;;;8.70;99.90;;;;;;4926338;29;20234;-78
2023/04/26 06:59:01;;;;;;;6.50;3.63;;;8.90;99.90;;;;;;4929236;29;20240;-80
2023/04/26 07:01:32;;;;;;;8.10;3.27;;;9.00;99.90;;;;;;4933608;29;20247;-76
2023/04/26 07:04:03;;;;;;;5.20;2.83;;;9.20;99.90;;;;;;4930139;29;20288;-77
2023/04/26 07:06:31;;;;;;;6.33;3.37;;;9.40;99.90;;;;;;4932877;29;20293;-79
2023/04/26 07:08:59;;;;;;;4.57;3.30;;;9.50;99.90;;;;;;4933559;29;20375;-76
2023/04/26 07:11:27;;;;;;;6.57;3.37;;;9.60;99.90;;;;;;4929575;29;20213;-78
2023/04/26 07:13:54;;;;;;;6.67;3.37;;;9.70;99.90;;;;;;4914327;29;20292;-77
2023/04/26 07:16:22;;;;;;;5.07;3.07;;;9.70;99.90;;;;;;4933901;29;20205;-78
2023/04/26 07:18:49;;;;;;;5.07;2.60;;;9.80;99.90;;;;;;4937183;29;20208;-79
2023/04/26 07:21:16;;;;;;;6.53;2.77;;;9.60;99.90;;;;;;4934169;29;20541;-78
2023/04/26 07:23:43;;;;;;;5.63;2.40;;;9.60;99.90;;;;;;4933433;29;20701;-78
2023/04/26 07:26:10;;;;;;;5.67;2.37;;;9.70;99.90;;;;;;4936753;29;20202;-76
2023/04/26 07:28:41;;;;;;;2.43;1.67;;;9.90;99.90;;;;;;4935952;29;20209;-78
2023/04/26 07:31:08;;;;;;;6.50;2.40;;;10.10;99.90;;;;;;4935451;29;20614;-78
2023/04/26 07:33:36;;;;;;;6.80;1.90;;;10.30;99.90;;;;;;4935790;29;20305;-80
2023/04/26 07:36:06;;;;;;;4.93;1.93;;;10.50;99.90;;;;;;4937529;29;20205;-78
2023/04/26 07:38:33;;;;;;;5.63;2.03;;;10.60;99.90;;;;;;4936348;29;20339;-77
2023/04/26 07:41:00;;;;;;;6.47;2.17;;;10.70;99.90;;;;;;4934457;29;20228;-78
2023/04/26 07:43:29;;;;;;;4.57;2.00;;;10.70;99.90;;;;;;4932010;29;20213;-78
2023/04/26 07:46:00;;;;;;;5.67;1.83;;;10.60;99.90;;;;;;4916340;29;20225;-78
2023/04/26 07:48:28;;;;;;;5.17;2.13;;;10.60;99.90;;;;;;4913004;29;20213;-78
2023/04/26 07:50:55;;;;;;;6.43;2.10;;;10.60;99.90;;;;;;4912571;29;20214;-79
2023/04/26 07:53:22;;;;;;;4.67;2.20;;;10.60;99.90;;;;;;4930987;29;20208;-81
2023/04/26 07:55:52;;;;;;;7.10;2.30;;;10.60;99.90;;;;;;4939542;29;20720;-79
2023/04/26 07:58:20;;;;;;;6.30;2.10;;;10.50;99.90;;;;;;4920777;29;20241;-80
2023/04/26 08:00:47;;;;;;;5.53;1.80;;;10.40;99.90;;;;;;4933176;29;20716;-79
2023/04/26 08:03:17;;;;;;;5.00;1.90;;;10.40;99.90;;;;;;4932218;29;20217;-79
2023/04/26 08:05:44;;;;;;;3.30;1.67;;;10.40;99.90;;;;;;4932742;29;20225;-78
2023/04/26 08:08:11;;;;;;;7.47;2.20;;;10.60;99.90;;;;;;4934201;29;20631;-78
2023/04/26 08:10:41;;;;;;;5.10;2.40;;;10.90;99.90;;;;;;4936120;29;20227;-78
2023/04/26 08:13:08;;;;;;;6.73;2.17;;;11.40;99.90;;;;;;4936814;29;20228;-77
2023/04/26 08:15:35;;;;;;;5.00;2.10;;;11.60;99.90;;;;;;4937437;29;20268;-78
2023/04/26 08:18:02;;;;;;;3.63;1.83;;;11.60;99.90;;;;;;4914689;29;20292;-78
2023/04/26 08:20:31;;;;;;;5.97;2.47;;;11.80;99.90;;;;;;4933584;29;20216;-78
2023/04/26 08:22:59;;;;;;;4.07;2.00;;;12.10;99.90;;;;;;4915623;29;20205;-78
2023/04/26 08:25:27;;;;;;;4.40;1.80;;;12.60;99.90;;;;;;4930540;29;20311;-78
2023/04/26 08:27:54;;;;;;;4.77;1.57;;;13.20;99.90;;;;;;4921896;29;20236;-77
2023/04/26 08:30:21;;;;;;;3.28;1.63;;;;;;;;;;4929138;29;20229;-77
2023/04/26 08:32:48;;;;;;;3.38;1.75;;;14.40;99.90;;;;;;4926918;29;20233;-77
2023/04/26 08:35:15;;;;;;;2.17;1.90;;;14.70;99.90;;;;;;4925108;29;20260;-77
2023/04/26 08:37:42;;;;;;;4.05;1.70;;;14.90;99.90;;;;;;4933368;29;20201;-76
2023/04/26 08:40:09;;;;;;;4.75;1.80;;;14.80;99.90;;;;;;4912771;29;20307;-76
2023/04/26 08:42:45;;;;;;;4.80;2.17;;;14.70;99.90;;;;;;4899806;29;20217;-76
2023/04/26 08:45:14;;;;;;;4.07;1.90;;;14.70;99.90;;;;;;4931780;29;20280;-76
2023/04/26 08:48:02;;;;;;;6.20;1.80;;;14.90;99.90;;;;;;4931045;29;20209;-76
2023/04/26 08:50:32;;;;;;;4.50;1.70;;;15.10;99.90;;;;;;4912702;29;20220;-77
2023/04/26 08:52:59;;;;;;;6.75;1.88;;;14.70;99.90;;;;;;4933969;29;20204;-77
2023/04/26 08:55:26;;;;;;;4.13;1.60;;;14.00;99.90;;;;;;4938367;29;20302;-77
2023/04/26 08:57:54;;;;;;;6.90;1.90;;;13.70;99.90;;;;;;4923576;29;20225;-77
2023/04/26 09:00:22;;;;;;;9.13;2.53;;;13.20;99.90;;;;;;4912304;29;20317;-79
2023/04/26 09:02:52;;;;;;;2.97;1.63;;;12.90;99.90;;;;;;4910398;29;20206;-78
2023/04/26 09:05:23;;;;;;;3.97;2.10;;;12.70;99.90;;;;;;4912730;29;20229;-76
2023/04/26 09:07:55;;;;;;;7.13;2.37;;;12.60;99.90;;;;;;4912686;29;20217;-75
2023/04/26 09:10:25;;;;;;;5.83;2.10;;;12.30;99.90;;;;;;4913066;29;20197;-78
2023/04/26 09:12:53;;;;;;;9.47;2.10;;;11.90;99.90;;;;;;4912406;29;20217;-76
2023/04/26 09:15:21;;;;;;;5.43;1.90;;;11.70;99.90;;;;;;4902500;29;20221;-80
2023/04/26 09:17:50;;;;;;;9.67;2.30;;;11.30;99.90;;;;;;4919948;29;20680;-77
2023/04/26 09:20:17;;;;;;;3.73;1.70;;;11.40;99.90;;;;;;4919629;29;20233;-78
2023/04/26 09:22:45;;;;;;;9.80;2.40;;;11.20;99.90;;;;;;4919067;29;20268;-76
2023/04/26 09:25:12;;;;;;;4.13;1.83;;;11.10;99.90;;;;;;4919084;29;20308;-77
2023/04/26 09:27:42;;;;;;;5.67;2.13;;;11.20;99.90;;;;;;4919476;29;20208;-76
2023/04/26 09:30:17;;;;;;;4.00;1.50;;;11.20;99.90;;;;;;4902293;29;20631;-78
2023/04/26 09:33:03;;;;;;;5.53;1.70;;;11.20;99.90;;;;;;4919100;29;20253;-77
2023/04/26 09:35:40;;;;;;;5.57;2.10;;;11.10;99.90;;;;;;4915067;29;20296;-78
2023/04/26 09:38:17;;;;;;;5.50;1.93;;;11.00;99.90;;;;;;4906969;29;20209;-77
2023/04/26 09:40:46;;;;;;;2.23;1.63;;;11.00;99.90;;;;;;4914556;29;20297;-78
2023/04/26 09:43:18;;;;;;;3.47;1.63;;;11.10;99.90;;;;;;4919297;29;20561;-78
2023/04/26 09:46:06;;;;;;;2.80;1.47;;;11.20;99.90;;;;;;4917438;29;20229;-78
2023/04/26 09:48:33;;;;;;;4.87;1.80;;;11.30;99.90;;;;;;4906195;29;20224;-78
2023/04/26 09:51:03;;;;;;;3.73;1.80;;;11.50;99.90;;;;;;4913503;29;20213;-78
2023/04/26 09:53:36;;;;;;;4.10;1.60;;;12.00;99.90;;;;;;4921393;29;20344;-78
2023/04/26 09:56:07;;;;;;;7.27;1.33;;;12.30;99.90;;;;;;4911050;29;20213;-76
2023/04/26 09:58:38;;;;;;;4.70;1.40;;;12.50;99.90;;;;;;4925918;29;20239;-76
2023/04/26 10:01:06;;;;;;;2.97;1.83;;;12.60;99.90;;;;;;4936850;29;20217;-79
2023/04/26 10:03:34;;;;;;;4.13;1.50;;;12.70;99.90;;;;;;4938312;29;20193;-77
2023/04/26 10:06:01;;;;;;;3.33;1.77;;;12.80;99.90;;;;;;4937977;29;20292;-77
2023/04/26 10:08:31;;;;;;;5.03;1.60;;;12.90;99.90;;;;;;4937627;29;20232;-76
2023/04/26 10:11:01;;;;;;;5.43;1.60;;;13.00;99.90;;;;;;4934994;29;20216;-78
2023/04/26 10:13:28;;;;;;;1.77;1.33;;;13.10;99.90;;;;;;4938543;29;20268;-77
2023/04/26 10:15:55;;;;;;;4.93;1.60;;;13.10;99.90;;;;;;4938055;29;20338;-76
2023/04/26 10:18:22;;;;;;;3.03;1.47;;;13.20;99.90;;;;;;4937870;29;20757;-80
2023/04/26 10:20:52;;;;;;;5.63;1.93;;;13.20;99.90;;;;;;4934641;29;20670;-78
2023/04/26 10:23:24;;;;;;;5.07;1.63;;;13.30;99.90;;;;;;4938572;29;20275;-76
2023/04/26 10:25:52;;;;;;;3.37;1.87;;;13.30;99.90;;;;;;4934645;29;20287;-77
2023/04/26 10:28:39;;;;;;;3.27;1.70;;;13.10;99.90;;;;;;4933380;29;20689;-77
2023/04/26 10:31:06;;;;;;;3.97;2.00;;;12.90;99.90;;;;;;4934642;29;20272;-77
2023/04/26 10:33:33;;;;;;;4.50;2.13;;;12.70;99.90;;;;;;4917474;29;20205;-77
2023/04/26 10:36:06;;;;;;;3.73;1.60;;;12.50;99.90;;;;;;4934080;29;20202;-77
2023/04/26 10:38:35;;;;;;;4.70;2.13;;;12.30;99.90;;;;;;4935370;29;20210;-77
2023/04/26 10:41:35;;;;;;;5.07;1.90;;;12.00;99.90;;;;;;4934064;29;20288;-77
2023/04/26 10:44:38;;;;;;;7.00;2.20;;;11.80;99.90;;;;;;4903143;29;20300;-77
2023/04/26 10:47:20;;;;;;;3.53;2.07;;;11.60;99.90;;;;;;4935397;29;20245;-76
2023/04/26 10:49:47;;;;;;;3.73;1.90;;;11.50;99.90;;;;;;4928079;29;20221;-76
2023/04/26 10:52:21;;;;;;;6.57;2.27;;;11.40;99.90;;;;;;4929709;29;20221;-78
2023/04/26 10:54:52;;;;;;;2.50;2.03;;;11.20;99.90;;;;;;4938298;29;20215;-79
2023/04/26 10:57:21;;;;;;;3.40;2.10;;;11.70;99.90;;;;;;4932992;29;20756;-76
2023/04/26 11:00:09;;;;;;;3.60;2.00;;;11.80;99.90;;;;;;4938349;29;20228;-75
2023/04/26 11:02:51;;;;;;;4.37;2.20;;;11.50;99.90;;;;;;4936309;29;20205;-76
2023/04/26 11:05:39;;;;;;;5.53;2.10;;;11.60;99.90;;;;;;4931365;29;20260;-77
2023/04/26 11:08:30;;;;;;;3.17;2.07;;;11.40;99.90;;;;;;4932146;29;20622;-75
2023/04/26 11:11:11;;;;;;;4.80;1.90;;;11.50;99.90;;;;;;4939433;29;20237;-77
2023/04/26 11:13:43;;;;;;;4.20;2.20;;;11.60;99.90;;;;;;4939809;29;20577;-76
2023/04/26 11:16:15;;;;;;;5.67;2.23;;;11.50;99.90;;;;;;4934468;29;20217;-76
2023/04/26 11:18:44;;;;;;;4.50;2.13;;;11.60;99.90;;;;;;4936762;29;20662;-75
2023/04/26 11:21:14;;;;;;;5.67;2.57;;;11.60;99.90;;;;;;4934705;29;20288;-76
2023/04/26 11:23:40;;;;;;;4.10;2.27;;;11.60;99.90;;;;;;4939497;29;20677;-75
2023/04/26 11:26:08;;;;;;;6.20;2.37;;;11.50;99.90;;;;;;4934452;29;20365;-76
2023/04/26 11:28:36;;;;;;;4.33;2.10;;;11.40;99.90;;;;;;4936500;29;20209;-78
2023/04/26 11:31:05;;;;;;;7.20;2.63;;;11.30;99.90;;;;;;4936600;29;20308;-78
2023/04/26 11:33:35;;;;;;;2.90;2.20;;;11.30;99.90;;;;;;4935586;29;20581;-76
2023/04/26 11:36:02;;;;;;;4.73;2.30;;;11.40;99.90;;;;;;4923696;29;20210;-77
2023/04/26 11:38:29;;;;;;;4.20;2.47;;;11.50;99.90;;;;;;4934170;29;20201;-77
2023/04/26 11:41:01;;;;;;;3.87;2.50;;;11.50;99.90;;;;;;4932244;29;20233;-78
2023/04/26 11:43:40;;;;;;;4.53;2.23;;;11.70;99.90;;;;;;4934531;29;20625;-77
2023/04/26 11:46:08;;;;;;;4.53;2.40;;;11.80;99.90;;;;;;4933981;29;20236;-78
2023/04/26 11:48:39;;;;;;;3.60;2.33;;;11.80;99.90;;;;;;4935778;29;20209;-77
2023/04/26 11:51:14;;;;;;;6.37;2.30;;;11.80;99.90;;;;;;4936192;29;20213;-77
2023/04/26 11:53:45;;;;;;;3.07;2.50;;;11.80;99.90;;;;;;4919910;29;20212;-77
2023/04/26 11:56:20;;;;;;;5.83;2.70;;;12.00;99.90;;;;;;4917122;29;20205;-77
2023/04/26 11:58:49;;;;;;;5.90;2.93;;;11.90;99.90;;;;;;4913604;29;20241;-77
2023/04/26 12:01:24;;;;;;;5.37;2.73;;;11.60;99.90;;;;;;4911423;29;20537;-77
2023/04/26 12:03:58;;;;;;;8.60;2.80;;;11.90;99.90;;;;;;4910010;29;20560;-79
2023/04/26 12:06:30;;;;;;;5.80;2.60;;;11.80;99.90;;;;;;4910283;29;20233;-77
2023/04/26 12:08:57;;;;;;;3.37;2.50;;;11.70;99.90;;;;;;4911578;29;20277;-77
2023/04/26 12:11:26;;;;;;;3.13;2.50;;;11.70;99.90;;;;;;4901185;29;20265;-77
2023/04/26 12:13:53;;;;;;;4.60;2.40;;;11.80;99.90;;;;;;4915197;29;20253;-79
2023/04/26 12:16:21;;;;;;;6.00;2.33;;;11.90;99.90;;;;;;4913355;29;20304;-77
2023/04/26 12:18:54;;;;;;;4.17;2.20;;;12.10;99.90;;;;;;4910873;29;20198;-77
2023/04/26 12:21:21;;;;;;;4.70;2.30;;;12.30;99.90;;;;;;4913281;29;20228;-78
2023/04/26 12:23:48;;;;;;;6.60;2.20;;;12.50;99.90;;;;;;4913486;29;20329;-77
2023/04/26 12:26:15;;;;;;;6.40;2.20;;;12.60;99.90;;;;;;4913589;29;20359;-78
2023/04/26 12:28:42;;;;;;;5.80;2.20;;;12.70;99.90;;;;;;4913799;29;20440;-77
2023/04/26 12:31:09;;;;;;;4.20;2.27;;;12.80;99.90;;;;;;4914467;29;20221;-77
2023/04/26 12:33:36;;;;;;;5.00;2.60;;;12.90;99.90;;;;;;4913215;29;20293;-76
2023/04/26 12:36:10;;;;;;;5.30;2.67;;;12.90;99.90;;;;;;4912800;29;20320;-77
2023/04/26 12:38:38;;;;;;;3.40;2.30;;;13.10;99.90;;;;;;4911063;29;20207;-76
2023/04/26 12:41:08;;;;;;;5.60;2.20;;;13.20;99.90;;;;;;4913415;29;20209;-77
2023/04/26 12:43:35;;;;;;;5.00;2.70;;;13.40;99.90;;;;;;4913807;29;20619;-77
2023/04/26 12:46:02;;;;;;;4.90;2.07;;;13.40;99.90;;;;;;4913573;29;20321;-78
2023/04/26 12:48:29;;;;;;;4.07;2.20;;;13.40;99.90;;;;;;4913456;29;20305;-77
2023/04/26 12:50:56;;;;;;;5.50;2.67;;;13.50;99.90;;;;;;4913011;29;20296;-77
2023/04/26 12:53:23;;;;;;;3.67;1.83;;;13.60;99.90;;;;;;4913133;29;20221;-77
2023/04/26 12:55:50;;;;;;;5.07;1.90;;;13.60;99.90;;;;;;4896578;29;20254;-77